SKG weather

Thessaloniki Macedonia International Airport
Thessaloniki, Thessaloniki, Greece

Public forecast

Using degrees Celsius for public forecast. Weather courtesy of forecast.io.

METAR (pilot weather report)

Retrieved 2019/05/24 04:20 UTC (31 minutes ago):

LGTS 240420Z 31005KT 9999 FEW008 BKN030 17/15 Q1009 NOSIG

TAF (pilot weather forecast)

Forecast is more than 12 hours old.

Retrieved 2019/05/23 00:15 UTC (1 day ago):

TAF LGTS 232300Z 2400/2424 VRB03KT 9999 SCT025 TEMPO 2400/2403 5000 TSRA FEW008 FEW016CB BKN020 BECMG 2402/2404 34012KT PROB40 TEMPO 2411/2415 7000 SHRA FEW018TCU SCT020 BECMG 2413/2415 17010KT